Alum Creek, West Virginia
Current Conditions -  °F | °C
As of 2:54 PM on Tuesday 21 Oct 2014 (Local Time) from KCRW Reporting Station
Overcast Overcast  
Wind Chill: 52°   Ceiling: 5500
Heat Index: 52°   Visibility: 10mi
Dew Point: 47°   Wind: 7mph
Humidity: 83%   Direction: 260°W
Pressure: 29.96"   Gusts: NA
Location:  38.28°N, 81.84°W
Report Text: KCRW 211854Z 26006KT 10SM FEW011 SCT025 OVC055 11/08 A2996 RMK AO2 RAE26 SLP144 P0000 T01110083
Loading
Personal Weather Stations






























Interactive Weather Map New forecast layout! Learn more

10-Day Weather Forecast

Advertisements
Track Severe Weather on mobile